Time;durP1;ratioP1;P1;durP2;ratioP2;P2;SDS_P1;SDS_P2;PMS_P1;PMS_P2;Temp;Humidity;BMP_temperature;BMP_pressure;BME280_temperature;BME280_humidity;BME280_pressure;Samples;Min_cycle;Max_cycle;Signal;HPM_P1;HPM_P2
2023/06/25 00:01:35;;;;;;;15.77;9.93;;;21.00;99.90;;;;;;5036960;28;20934;-65
2023/06/25 00:04:01;;;;;;;11.77;9.88;;;21.00;99.90;;;;;;5063575;28;20906;-65
2023/06/25 00:06:26;;;;;;;14.70;10.60;;;21.00;99.90;;;;;;5062967;28;20614;-65
2023/06/25 00:08:52;;;;;;;12.07;10.43;;;21.00;99.90;;;;;;5046866;28;20396;-65
2023/06/25 00:11:17;;;;;;;12.98;10.50;;;20.90;99.90;;;;;;5050951;28;20437;-65
2023/06/25 00:13:43;;;;;;;14.17;10.30;;;20.90;99.90;;;;;;5052158;28;20488;-65
2023/06/25 00:16:09;;;;;;;13.17;10.53;;;20.90;99.90;;;;;;5055790;28;20429;-65
2023/06/25 00:18:35;;;;;;;11.40;10.13;;;20.90;99.90;;;;;;5057755;28;20619;-65
2023/06/25 00:21:01;;;;;;;12.88;10.18;;;20.90;99.90;;;;;;5049915;28;20423;-65
2023/06/25 00:23:27;;;;;;;13.27;9.95;;;20.90;99.90;;;;;;5052817;28;20488;-65
2023/06/25 00:25:52;;;;;;;11.70;10.07;;;20.90;99.90;;;;;;5045832;28;20438;-65
2023/06/25 00:28:18;;;;;;;13.93;10.52;;;20.80;99.90;;;;;;5041203;28;20405;-65
2023/06/25 00:30:44;;;;;;;12.43;10.60;;;20.80;99.90;;;;;;5078894;22;20778;-77
2023/06/25 00:33:10;;;;;;;12.25;10.77;;;20.80;99.90;;;;;;5066825;28;20401;-77
2023/06/25 00:35:50;;;;;;;13.20;10.27;;;20.80;99.90;;;;;;5068730;28;20452;-77
2023/06/25 00:38:19;;;;;;;15.52;10.20;;;20.80;99.90;;;;;;5064535;28;20918;-77
2023/06/25 00:40:44;;;;;;;13.98;11.18;;;20.80;99.90;;;;;;5063688;28;20486;-77
2023/06/25 00:43:10;;;;;;;12.93;10.68;;;20.80;99.90;;;;;;5071999;28;20966;-77
2023/06/25 00:45:36;;;;;;;13.00;10.83;;;20.70;99.90;;;;;;5071373;28;20422;-77
2023/06/25 00:48:02;;;;;;;13.00;10.95;;;20.70;99.90;;;;;;5072874;28;20486;-77
2023/06/25 00:50:28;;;;;;;13.73;11.15;;;20.70;99.90;;;;;;5087310;28;20414;-77
2023/06/25 00:52:57;;;;;;;15.18;11.00;;;20.70;99.90;;;;;;5055274;28;20425;-77
2023/06/25 00:55:25;;;;;;;13.60;10.95;;;20.60;99.90;;;;;;5069133;28;20416;-77
2023/06/25 00:57:52;;;;;;;14.35;11.07;;;20.70;99.90;;;;;;5065260;28;20463;-77
2023/06/25 01:00:19;;;;;;;13.43;10.85;;;20.60;99.90;;;;;;5071372;28;20803;-77
2023/06/25 01:03:14;;;;;;;14.40;10.95;;;20.60;99.90;;;;;;5071292;28;20431;-77
2023/06/25 01:05:51;;;;;;;13.02;10.88;;;20.60;99.90;;;;;;5053094;28;20506;-77
2023/06/25 01:08:17;;;;;;;13.27;11.30;;;20.50;99.90;;;;;;5047770;28;20399;-77
2023/06/25 01:10:43;;;;;;;13.98;11.45;;;20.50;99.90;;;;;;5071426;28;20452;-77
2023/06/25 01:13:09;;;;;;;13.30;10.80;;;20.50;99.90;;;;;;5071189;28;20408;-77
2023/06/25 01:15:35;;;;;;;14.07;11.20;;;20.50;99.90;;;;;;5067999;28;20412;-77
2023/06/25 01:18:01;;;;;;;15.35;11.85;;;20.40;99.90;;;;;;5094163;28;20933;-77
2023/06/25 01:20:27;;;;;;;15.15;11.27;;;20.40;99.90;;;;;;5067659;28;21789;-77
2023/06/25 01:22:57;;;;;;;14.98;11.48;;;20.60;99.90;;;;;;5069844;28;20486;-77
2023/06/25 01:25:23;;;;;;;13.88;11.27;;;20.40;99.90;;;;;;5087219;28;20802;-77
2023/06/25 01:27:50;;;;;;;12.97;11.20;;;20.40;99.90;;;;;;5087700;28;20407;-77
2023/06/25 01:30:17;;;;;;;14.95;11.27;;;20.30;99.90;;;;;;5054267;28;20404;-77
2023/06/25 01:32:44;;;;;;;13.90;11.87;;;20.30;99.90;;;;;;5071024;28;20797;-77
2023/06/25 01:35:11;;;;;;;14.02;11.18;;;20.30;99.90;;;;;;5049626;28;20420;-77
2023/06/25 01:37:37;;;;;;;13.80;11.75;;;20.30;99.90;;;;;;5071171;28;20408;-77
2023/06/25 01:40:03;;;;;;;14.85;11.77;;;20.20;99.90;;;;;;5104359;28;20406;-77
2023/06/25 01:42:29;;;;;;;14.43;11.23;;;20.20;99.90;;;;;;5087589;28;20395;-77
2023/06/25 01:44:54;;;;;;;14.05;11.18;;;20.10;99.90;;;;;;5071919;28;20804;-77
2023/06/25 01:47:20;;;;;;;13.27;10.90;;;20.10;99.90;;;;;;5071251;28;20800;-76
2023/06/25 01:49:46;;;;;;;13.35;11.57;;;20.10;99.90;;;;;;5053756;28;20416;-77
2023/06/25 01:52:11;;;;;;;14.27;11.60;;;20.10;99.90;;;;;;5069485;28;20410;-76
2023/06/25 01:54:37;;;;;;;15.80;12.00;;;20.40;99.90;;;;;;5070646;28;20767;-77
2023/06/25 01:57:04;;;;;;;12.95;11.35;;;20.10;99.90;;;;;;5071522;28;20403;-77
2023/06/25 01:59:33;;;;;;;13.48;10.95;;;20.00;99.90;;;;;;5071952;28;20403;-77
2023/06/25 02:01:59;;;;;;;13.97;11.73;;;20.00;99.90;;;;;;5070214;28;20453;-77
2023/06/25 02:04:24;;;;;;;15.67;12.47;;;20.00;99.90;;;;;;5069987;28;20478;-77
2023/06/25 02:06:50;;;;;;;16.52;12.35;;;20.00;99.90;;;;;;5071026;28;20502;-77
2023/06/25 02:09:16;;;;;;;14.43;12.25;;;20.00;99.90;;;;;;5083940;28;20879;-77
2023/06/25 02:11:41;;;;;;;15.70;12.17;;;20.00;99.90;;;;;;5069095;28;20516;-77
2023/06/25 02:14:07;;;;;;;15.80;12.10;;;19.90;99.90;;;;;;5070189;28;20427;-77
2023/06/25 02:16:33;;;;;;;17.63;12.90;;;19.90;99.90;;;;;;5078442;28;20405;-77
2023/06/25 02:18:59;;;;;;;16.20;13.03;;;19.90;99.90;;;;;;5068248;28;20403;-77
2023/06/25 02:21:25;;;;;;;16.15;13.10;;;19.90;99.90;;;;;;5069712;28;20419;-77
2023/06/25 02:23:53;;;;;;;17.13;13.70;;;19.90;99.90;;;;;;5054618;28;20511;-77
2023/06/25 02:26:19;;;;;;;17.58;12.80;;;19.90;99.90;;;;;;5054514;28;20428;-77
2023/06/25 02:28:45;;;;;;;19.25;13.70;;;19.80;99.90;;;;;;5072243;28;20430;-77
2023/06/25 02:31:12;;;;;;;17.02;14.20;;;19.90;99.90;;;;;;5069848;28;20408;-77
2023/06/25 02:33:40;;;;;;;17.35;13.80;;;19.80;99.90;;;;;;5068620;28;20424;-77
2023/06/25 02:36:06;;;;;;;20.77;15.05;;;20.00;99.90;;;;;;5069753;28;20421;-77
2023/06/25 02:38:32;;;;;;;17.83;14.13;;;19.80;99.90;;;;;;5069710;28;20434;-77
2023/06/25 02:40:57;;;;;;;18.38;14.55;;;19.80;99.90;;;;;;5067994;28;20764;-77
2023/06/25 02:43:24;;;;;;;17.55;14.15;;;19.80;99.90;;;;;;5069510;28;20396;-77
2023/06/25 02:45:50;;;;;;;17.40;14.10;;;19.80;99.90;;;;;;5078148;28;20471;-77
2023/06/25 02:48:16;;;;;;;16.92;13.40;;;19.70;99.90;;;;;;5069075;28;20407;-77
2023/06/25 02:50:43;;;;;;;18.88;14.48;;;19.70;99.90;;;;;;5077004;28;20435;-77
2023/06/25 02:53:09;;;;;;;17.50;14.13;;;19.70;99.90;;;;;;5085071;28;20502;-77
2023/06/25 02:55:34;;;;;;;17.55;13.23;;;19.70;99.90;;;;;;5068961;28;20468;-77
2023/06/25 02:58:00;;;;;;;16.47;13.43;;;19.70;99.90;;;;;;5068740;28;20404;-77
2023/06/25 03:00:26;;;;;;;17.35;13.52;;;19.70;99.90;;;;;;5051736;28;20902;-77
2023/06/25 03:02:51;;;;;;;17.80;14.30;;;19.70;99.90;;;;;;5069326;28;20514;-77
2023/06/25 03:05:17;;;;;;;16.30;13.68;;;19.70;99.90;;;;;;5068788;28;20403;-77
2023/06/25 03:07:55;;;;;;;19.43;14.17;;;19.70;99.90;;;;;;5100583;28;20448;-77
2023/06/25 03:10:27;;;;;;;16.80;13.57;;;19.70;99.90;;;;;;5068900;28;20414;-77
2023/06/25 03:12:52;;;;;;;20.70;14.63;;;19.70;99.90;;;;;;5068946;28;20787;-77
2023/06/25 03:15:18;;;;;;;17.97;13.63;;;19.70;99.90;;;;;;5052258;28;20767;-78
2023/06/25 03:17:45;;;;;;;18.00;13.13;;;19.70;99.90;;;;;;5051630;28;20411;-76
2023/06/25 03:20:11;;;;;;;19.05;13.90;;;19.70;99.90;;;;;;5069123;28;20406;-76
2023/06/25 03:22:37;;;;;;;17.60;13.50;;;19.60;99.90;;;;;;5068932;28;20482;-76
2023/06/25 03:25:03;;;;;;;17.17;14.10;;;19.60;99.90;;;;;;5068334;28;20420;-76
2023/06/25 03:27:31;;;;;;;17.13;14.07;;;19.60;99.90;;;;;;5069761;28;20907;-76
2023/06/25 03:29:56;;;;;;;19.57;14.10;;;19.60;99.90;;;;;;5069331;28;20491;-76
2023/06/25 03:32:22;;;;;;;17.30;13.83;;;19.60;99.90;;;;;;5083797;28;20482;-77
2023/06/25 03:34:48;;;;;;;16.93;13.80;;;19.60;99.90;;;;;;5065763;28;20411;-76
2023/06/25 03:37:14;;;;;;;18.80;13.75;;;19.60;99.90;;;;;;5059254;28;20425;-76
2023/06/25 03:39:39;;;;;;;18.80;14.32;;;19.60;99.90;;;;;;5050473;28;20407;-76
2023/06/25 03:42:05;;;;;;;17.95;13.63;;;19.60;99.90;;;;;;5067441;28;20430;-76
2023/06/25 03:44:31;;;;;;;17.65;13.98;;;19.60;99.90;;;;;;5068371;28;20487;-76
2023/06/25 03:46:57;;;;;;;17.77;13.40;;;19.50;99.90;;;;;;5064209;28;20473;-76
2023/06/25 03:49:22;;;;;;;16.48;13.45;;;19.50;99.90;;;;;;5063440;28;20396;-76
2023/06/25 03:51:48;;;;;;;18.73;13.83;;;19.50;99.90;;;;;;5064720;28;20905;-76
2023/06/25 03:54:13;;;;;;;18.20;13.60;;;19.50;99.90;;;;;;5068803;28;20407;-76
2023/06/25 03:56:39;;;;;;;17.08;13.25;;;19.50;99.90;;;;;;5068366;28;20433;-76
2023/06/25 03:59:05;;;;;;;17.83;13.47;;;19.50;99.90;;;;;;5068705;28;20969;-75
2023/06/25 04:01:30;;;;;;;15.80;12.83;;;19.50;99.90;;;;;;5069304;28;20427;-76
2023/06/25 04:03:56;;;;;;;17.25;13.15;;;19.50;99.90;;;;;;5068703;28;20749;-76
2023/06/25 04:06:21;;;;;;;15.37;12.70;;;19.50;99.90;;;;;;5071872;28;20479;-76
2023/06/25 04:08:47;;;;;;;17.67;12.57;;;19.50;99.90;;;;;;5068491;28;20976;-76
2023/06/25 04:11:13;;;;;;;16.15;12.68;;;19.40;99.90;;;;;;5071938;28;20407;-76
2023/06/25 04:13:39;;;;;;;16.85;12.93;;;19.40;99.90;;;;;;5055238;28;20793;-76
2023/06/25 04:16:07;;;;;;;16.80;12.43;;;19.50;99.90;;;;;;5071318;28;20435;-76
2023/06/25 04:18:32;;;;;;;16.27;12.13;;;19.50;99.90;;;;;;5072524;28;20518;-76
2023/06/25 04:20:58;;;;;;;15.85;12.52;;;19.50;99.90;;;;;;5071164;28;20511;-76
2023/06/25 04:23:24;;;;;;;16.45;12.45;;;19.50;99.90;;;;;;5071973;28;20400;-76
2023/06/25 04:25:49;;;;;;;14.93;11.98;;;19.50;99.90;;;;;;5068772;28;20970;-75
2023/06/25 04:28:15;;;;;;;15.83;12.00;;;19.60;99.90;;;;;;5070437;28;20399;-75
2023/06/25 04:30:42;;;;;;;16.02;12.50;;;19.50;99.90;;;;;;5069173;28;20918;-76
2023/06/25 04:33:07;;;;;;;15.65;12.35;;;19.80;99.90;;;;;;5054524;28;20449;-75
2023/06/25 04:35:33;;;;;;;15.95;12.10;;;19.50;99.90;;;;;;5071516;28;20415;-76
2023/06/25 04:37:59;;;;;;;15.13;12.15;;;19.50;99.90;;;;;;5071313;28;20926;-76
2023/06/25 04:40:25;;;;;;;16.52;11.70;;;19.60;99.90;;;;;;5102049;28;20436;-76
2023/06/25 04:42:51;;;;;;;17.27;12.70;;;19.60;99.90;;;;;;5071536;28;20748;-76
2023/06/25 04:45:18;;;;;;;15.73;12.38;;;19.60;99.90;;;;;;5054409;28;20486;-76
2023/06/25 04:47:43;;;;;;;15.68;12.70;;;19.70;99.90;;;;;;5062668;28;20487;-76
2023/06/25 04:50:09;;;;;;;14.17;11.97;;;19.60;99.90;;;;;;5069024;28;21067;-76
2023/06/25 04:52:35;;;;;;;17.80;12.73;;;19.60;99.90;;;;;;5071236;28;20457;-76
2023/06/25 04:55:01;;;;;;;16.30;12.50;;;19.60;99.90;;;;;;5053813;28;20415;-76
2023/06/25 04:57:27;;;;;;;16.27;12.50;;;19.70;99.90;;;;;;5070877;28;20439;-76
2023/06/25 04:59:52;;;;;;;15.27;12.53;;;19.70;99.90;;;;;;5071505;28;20392;-76
2023/06/25 05:02:18;;;;;;;14.70;12.02;;;19.70;99.90;;;;;;5070074;28;20489;-76
2023/06/25 05:04:44;;;;;;;16.50;12.97;;;19.70;99.90;;;;;;5078178;28;20924;-75
2023/06/25 05:07:10;;;;;;;16.92;12.93;;;20.00;99.90;;;;;;5070861;28;20400;-76
2023/06/25 05:09:36;;;;;;;17.25;13.50;;;19.70;99.90;;;;;;5072286;28;20400;-76
2023/06/25 05:12:02;;;;;;;16.83;12.60;;;19.70;99.90;;;;;;5071128;28;20434;-76
2023/06/25 05:14:27;;;;;;;16.27;12.57;;;19.70;99.90;;;;;;5104188;28;20411;-76
2023/06/25 05:16:53;;;;;;;17.07;13.00;;;19.80;99.90;;;;;;5071016;28;20937;-77
2023/06/25 05:19:19;;;;;;;16.98;12.93;;;20.70;99.90;;;;;;5054255;28;20399;-76
2023/06/25 05:21:45;;;;;;;16.75;13.65;;;19.80;99.90;;;;;;5070753;28;20514;-76
2023/06/25 05:24:11;;;;;;;18.70;13.13;;;19.80;99.90;;;;;;5070578;28;20510;-76
2023/06/25 05:26:37;;;;;;;16.02;13.00;;;19.80;99.90;;;;;;5070661;28;20422;-76
2023/06/25 05:29:03;;;;;;;16.63;13.18;;;19.90;99.90;;;;;;5086598;28;20473;-76
2023/06/25 05:31:29;;;;;;;18.65;13.88;;;19.90;99.90;;;;;;5081099;28;20399;-76
2023/06/25 05:33:54;;;;;;;15.90;13.70;;;19.90;99.90;;;;;;5053645;28;20431;-76
2023/06/25 05:36:21;;;;;;;18.75;14.20;;;20.30;99.90;;;;;;5070373;28;20450;-76
2023/06/25 05:38:46;;;;;;;19.60;14.15;;;19.90;99.90;;;;;;5069816;28;20403;-76
2023/06/25 05:41:12;;;;;;;16.35;13.85;;;20.00;99.90;;;;;;5067110;28;20473;-76
2023/06/25 05:43:38;;;;;;;17.77;13.75;;;20.00;99.90;;;;;;5069196;28;20454;-76
2023/06/25 05:46:04;;;;;;;18.52;14.60;;;20.00;99.90;;;;;;5066293;28;20414;-76
2023/06/25 05:48:30;;;;;;;17.75;14.45;;;20.00;99.90;;;;;;5100711;28;20439;-76
2023/06/25 05:50:55;;;;;;;18.75;14.50;;;20.10;99.90;;;;;;5058342;28;20464;-76
2023/06/25 05:53:24;;;;;;;21.23;15.47;;;20.10;99.90;;;;;;5070327;28;20408;-76
2023/06/25 05:55:49;;;;;;;19.17;15.35;;;20.10;99.90;;;;;;5068481;28;20983;-76
2023/06/25 05:58:15;;;;;;;19.15;14.88;;;20.10;99.90;;;;;;5069200;28;20499;-76
2023/06/25 06:00:41;;;;;;;18.42;15.48;;;20.20;99.90;;;;;;5102351;28;20462;-77
2023/06/25 06:03:06;;;;;;;19.90;16.13;;;20.20;99.90;;;;;;5071180;28;20396;-77
2023/06/25 06:05:32;;;;;;;21.67;15.83;;;20.20;99.90;;;;;;5065595;28;20409;-76
2023/06/25 06:07:58;;;;;;;17.40;14.90;;;20.20;99.90;;;;;;5070365;28;20411;-78
2023/06/25 06:10:23;;;;;;;20.05;16.45;;;20.30;99.90;;;;;;5053713;28;20408;-77
2023/06/25 06:12:49;;;;;;;21.67;16.87;;;20.30;99.90;;;;;;5052713;28;20412;-77
2023/06/25 06:15:15;;;;;;;20.93;16.00;;;20.50;99.90;;;;;;5050002;28;20423;-77
2023/06/25 06:17:42;;;;;;;18.73;15.60;;;21.20;99.90;;;;;;5046692;28;20420;-77
2023/06/25 06:20:08;;;;;;;19.23;15.85;;;20.40;99.90;;;;;;5071483;28;20895;-77
2023/06/25 06:22:33;;;;;;;21.80;16.55;;;20.40;99.90;;;;;;5070984;28;20411;-77
2023/06/25 06:25:03;;;;;;;23.50;16.67;;;20.40;99.90;;;;;;5066959;28;20848;-78
2023/06/25 06:27:29;;;;;;;19.45;16.58;;;20.50;99.90;;;;;;5052624;28;20404;-79
2023/06/25 06:32:32;;;;;;;17.65;15.60;;;20.50;99.90;;;;;;5103544;28;21125;-65
2023/06/25 06:34:58;;;;;;;20.50;16.40;;;20.60;99.90;;;;;;5080794;28;20402;-65
2023/06/25 06:37:23;;;;;;;23.20;17.97;;;20.60;99.90;;;;;;5104693;27;20402;-65
2023/06/25 06:39:49;;;;;;;22.63;17.80;;;20.70;99.90;;;;;;5107218;28;20462;-65
2023/06/25 06:42:15;;;;;;;19.07;16.83;;;20.70;99.90;;;;;;5106929;28;20424;-65
2023/06/25 06:44:40;;;;;;;21.23;18.60;;;20.80;99.90;;;;;;5100883;28;20428;-65
2023/06/25 06:47:06;;;;;;;22.08;17.52;;;20.80;99.90;;;;;;5102296;28;20763;-65
2023/06/25 06:49:31;;;;;;;23.40;17.75;;;20.90;99.90;;;;;;5105314;27;20397;-65
2023/06/25 06:51:57;;;;;;;20.57;17.90;;;20.90;99.90;;;;;;5097238;28;20489;-65
2023/06/25 06:54:23;;;;;;;20.63;17.38;;;20.90;99.90;;;;;;5113493;27;20410;-65
2023/06/25 06:56:48;;;;;;;22.08;17.98;;;21.00;99.90;;;;;;5112392;27;20408;-65
2023/06/25 06:59:14;;;;;;;19.97;17.70;;;21.10;99.90;;;;;;5107013;28;20503;-65
2023/06/25 07:01:39;;;;;;;20.05;17.67;;;21.10;99.90;;;;;;5110594;28;20453;-65
2023/06/25 07:04:05;;;;;;;21.35;18.45;;;21.20;99.90;;;;;;5101831;27;20476;-65
2023/06/25 07:06:31;;;;;;;20.80;18.60;;;21.20;99.90;;;;;;5105065;27;20412;-65
2023/06/25 07:08:56;;;;;;;22.40;18.83;;;21.30;99.90;;;;;;5096489;28;20480;-65
2023/06/25 07:11:22;;;;;;;20.25;18.13;;;21.40;99.90;;;;;;5097072;28;20407;-65
2023/06/25 07:13:49;;;;;;;21.27;18.98;;;21.40;99.90;;;;;;5097589;28;20425;-65
2023/06/25 07:16:15;;;;;;;21.63;18.02;;;21.50;99.90;;;;;;5101571;28;20488;-65
2023/06/25 07:18:42;;;;;;;21.35;17.65;;;21.50;99.90;;;;;;5097258;28;20501;-65
2023/06/25 07:21:09;;;;;;;21.58;18.02;;;21.60;99.90;;;;;;5096294;28;20412;-65
2023/06/25 07:23:35;;;;;;;21.55;18.50;;;21.60;99.90;;;;;;5091712;28;20895;-65
2023/06/25 07:26:01;;;;;;;21.30;17.70;;;21.70;99.90;;;;;;5097197;28;20405;-65
2023/06/25 07:28:27;;;;;;;19.80;16.80;;;21.80;99.90;;;;;;5095197;28;20393;-65
2023/06/25 07:30:52;;;;;;;20.57;17.33;;;21.80;99.90;;;;;;5097188;28;20410;-65
2023/06/25 07:33:18;;;;;;;20.23;16.85;;;21.90;99.90;;;;;;5098684;28;20905;-65
2023/06/25 07:35:44;;;;;;;20.43;16.63;;;22.00;99.90;;;;;;5097085;28;20854;-65
2023/06/25 07:38:09;;;;;;;18.73;16.70;;;22.10;99.90;;;;;;5101580;28;20415;-65
2023/06/25 07:40:35;;;;;;;17.98;16.02;;;22.10;99.90;;;;;;5098918;28;20507;-65
2023/06/25 07:43:02;;;;;;;18.47;15.63;;;22.20;99.90;;;;;;5093206;28;20406;-65
2023/06/25 07:45:28;;;;;;;17.13;15.18;;;22.20;99.90;;;;;;5107599;28;20411;-64
2023/06/25 07:47:55;;;;;;;17.02;15.13;;;22.30;99.90;;;;;;5081886;28;20422;-66
2023/06/25 07:50:20;;;;;;;17.48;15.55;;;22.40;99.90;;;;;;5088334;28;20796;-64
2023/06/25 07:52:46;;;;;;;16.90;14.77;;;22.40;99.90;;;;;;5090465;28;20425;-64
2023/06/25 07:55:12;;;;;;;16.47;14.03;;;22.50;99.90;;;;;;5090907;28;20409;-64
2023/06/25 07:57:37;;;;;;;18.05;15.15;;;22.60;99.90;;;;;;5100887;28;20881;-64
2023/06/25 08:00:03;;;;;;;15.33;13.10;;;22.70;99.90;;;;;;5098289;28;20417;-64
2023/06/25 08:02:29;;;;;;;13.80;12.13;;;22.80;99.90;;;;;;5097243;28;20927;-64
2023/06/25 08:04:56;;;;;;;16.20;13.50;;;22.80;99.90;;;;;;5101463;28;20456;-64
2023/06/25 08:07:21;;;;;;;16.40;11.82;;;23.00;99.90;;;;;;5101564;28;20436;-64
2023/06/25 08:09:48;;;;;;;15.18;11.48;;;23.10;99.90;;;;;;5098919;28;20528;-64
2023/06/25 08:12:16;;;;;;;13.60;10.90;;;23.20;99.90;;;;;;5099247;28;20860;-64
2023/06/25 08:14:43;;;;;;;12.82;10.80;;;23.30;99.90;;;;;;5096801;28;20392;-64
2023/06/25 08:17:08;;;;;;;13.63;10.52;;;23.50;99.90;;;;;;5100025;28;20801;-64
2023/06/25 08:19:34;;;;;;;12.50;9.68;;;23.60;99.90;;;;;;5092562;28;20444;-64
2023/06/25 08:21:59;;;;;;;12.03;8.90;;;23.80;99.90;;;;;;5100349;28;20515;-64
2023/06/25 08:24:25;;;;;;;14.17;9.77;;;24.00;99.70;;;;;;5103480;28;20408;-64
2023/06/25 08:26:51;;;;;;;10.82;9.02;;;24.20;98.90;;;;;;5102076;28;20431;-65
2023/06/25 08:29:16;;;;;;;11.67;9.20;;;24.40;98.40;;;;;;5102176;28;20862;-65
2023/06/25 08:31:42;;;;;;;9.93;8.15;;;24.70;98.10;;;;;;5100684;28;20427;-65
2023/06/25 08:34:07;;;;;;;9.80;7.47;;;24.90;96.50;;;;;;5101255;28;20393;-65
2023/06/25 08:36:33;;;;;;;10.25;8.68;;;25.20;95.60;;;;;;5102011;28;20382;-65
2023/06/25 08:38:59;;;;;;;11.50;8.70;;;25.50;95.10;;;;;;5097409;28;20890;-65
2023/06/25 08:41:26;;;;;;;10.88;8.48;;;25.70;94.30;;;;;;5099898;28;20466;-66
2023/06/25 08:43:53;;;;;;;10.17;7.77;;;26.00;93.90;;;;;;5103842;28;21088;-66
2023/06/25 08:46:23;;;;;;;9.05;6.78;;;26.20;92.20;;;;;;5101820;28;20911;-66
2023/06/25 08:48:53;;;;;;;8.45;6.82;;;26.40;92.30;;;;;;5109884;28;20385;-66
2023/06/25 08:51:23;;;;;;;7.78;6.55;;;26.80;91.40;;;;;;5110231;27;20429;-66
2023/06/25 08:53:48;;;;;;;11.02;6.68;;;27.00;90.50;;;;;;5096977;28;20457;-66
2023/06/25 08:56:17;;;;;;;9.93;6.30;;;27.10;86.80;;;;;;5102908;28;20400;-66
2023/06/25 08:58:44;;;;;;;9.00;7.18;;;27.30;87.50;;;;;;5099538;28;20392;-66
2023/06/25 09:01:13;;;;;;;8.67;6.03;;;27.50;87.60;;;;;;5098093;28;20413;-66
2023/06/25 09:03:41;;;;;;;8.80;5.82;;;27.70;86.20;;;;;;5097824;28;20404;-66
2023/06/25 09:06:16;;;;;;;8.75;6.50;;;27.90;83.80;;;;;;5100359;28;20392;-66
2023/06/25 09:08:43;;;;;;;7.87;6.20;;;28.00;81.30;;;;;;5110182;27;20426;-66
2023/06/25 09:11:09;;;;;;;7.95;6.60;;;28.30;81.10;;;;;;5111588;28;20750;-66
2023/06/25 09:13:36;;;;;;;7.20;5.15;;;28.50;79.00;;;;;;5110509;28;20031;-66
2023/06/25 09:16:07;;;;;;;9.63;4.88;;;28.40;81.00;;;;;;5102976;28;20036;-66
2023/06/25 09:18:33;;;;;;;9.40;5.20;;;28.50;80.90;;;;;;5106695;28;20036;-66
2023/06/25 09:21:03;;;;;;;7.80;5.65;;;28.60;81.30;;;;;;5111399;28;20075;-66
2023/06/25 09:23:29;;;;;;;9.90;6.10;;;28.80;79.70;;;;;;5101925;28;20047;-66
2023/06/25 09:25:55;;;;;;;8.73;6.00;;;28.80;78.80;;;;;;5102068;28;20110;-66
2023/06/25 09:28:21;;;;;;;7.35;5.40;;;28.70;77.70;;;;;;5103324;28;20032;-66
2023/06/25 09:30:47;;;;;;;7.68;6.00;;;28.80;78.80;;;;;;5107833;28;20401;-66
2023/06/25 09:33:13;;;;;;;8.55;6.15;;;28.80;76.40;;;;;;5097952;28;20047;-66
2023/06/25 09:35:39;;;;;;;9.07;6.47;;;28.90;75.80;;;;;;5103191;28;20036;-66
2023/06/25 09:38:06;;;;;;;8.77;6.15;;;28.90;75.50;;;;;;5102554;28;20039;-66
2023/06/25 09:40:49;;;;;;;12.52;6.93;;;29.00;75.50;;;;;;5097528;28;20127;-66
2023/06/25 09:43:15;;;;;;;9.00;6.53;;;29.10;73.40;;;;;;5104778;28;20158;-66
2023/06/25 09:45:43;;;;;;;11.85;7.00;;;29.10;74.10;;;;;;5103328;28;20498;-66
2023/06/25 09:48:12;;;;;;;9.52;6.65;;;29.30;74.30;;;;;;5108787;28;20043;-66
2023/06/25 09:50:39;;;;;;;10.02;7.00;;;29.50;74.40;;;;;;5107078;28;20122;-66
2023/06/25 09:53:16;;;;;;;10.68;6.00;;;29.70;74.60;;;;;;5102365;28;20418;-66
2023/06/25 09:55:42;;;;;;;11.50;6.00;;;30.00;72.70;;;;;;5100785;28;20438;-66
2023/06/25 09:58:09;;;;;;;7.90;5.80;;;30.00;71.90;;;;;;5104117;28;20032;-66
2023/06/25 10:00:38;;;;;;;9.70;5.93;;;30.00;69.70;;;;;;5092373;28;20497;-66
2023/06/25 10:05:39;;;;;;;8.30;5.40;;;29.90;68.50;;;;;;5262365;22;20063;-79
2023/06/25 10:08:06;;;;;;;7.88;5.22;;;29.90;67.20;;;;;;5027810;28;20590;-79
2023/06/25 10:10:32;;;;;;;9.65;5.93;;;30.00;67.00;;;;;;5030955;28;20041;-80
2023/06/25 10:13:02;;;;;;;9.90;5.80;;;29.90;66.40;;;;;;5030432;28;20047;-82
2023/06/25 10:15:35;;;;;;;8.18;5.38;;;29.90;65.20;;;;;;5045322;28;20036;-82
2023/06/25 10:18:03;;;;;;;12.30;5.28;;;29.90;65.90;;;;;;5048858;28;20044;-78
2023/06/25 10:20:35;;;;;;;13.50;5.53;;;29.90;66.80;;;;;;5028635;28;20743;-78
2023/06/25 10:23:03;;;;;;;8.38;5.63;;;30.00;67.00;;;;;;5030172;28;20764;-78
2023/06/25 10:25:31;;;;;;;6.47;4.35;;;30.10;66.10;;;;;;5016815;28;20056;-79
2023/06/25 10:28:13;;;;;;;8.30;4.68;;;30.30;66.60;;;;;;5005547;28;20044;-78
2023/06/25 10:30:45;;;;;;;9.00;5.00;;;30.50;65.10;;;;;;5047310;28;20047;-79
2023/06/25 10:33:15;;;;;;;6.15;4.70;;;30.70;65.50;;;;;;5025346;28;20045;-79
2023/06/25 10:35:43;;;;;;;19.30;5.28;;;30.80;64.70;;;;;;5026086;28;20099;-79
2023/06/25 10:38:09;;;;;;;6.88;4.68;;;30.90;64.80;;;;;;5026813;28;20033;-78
2023/06/25 10:40:39;;;;;;;5.38;4.20;;;31.00;63.50;;;;;;5029772;28;20493;-78
2023/06/25 10:43:06;;;;;;;12.55;5.07;;;31.10;63.30;;;;;;5026402;28;20041;-78
2023/06/25 10:45:32;;;;;;;5.55;4.80;;;31.20;63.40;;;;;;5048081;28;20584;-82
2023/06/25 10:48:12;;;;;;;6.20;4.95;;;31.20;63.40;;;;;;5027379;28;20037;-80
2023/06/25 10:50:38;;;;;;;5.85;4.80;;;31.20;62.00;;;;;;5031762;28;20045;-78
2023/06/25 10:53:11;;;;;;;6.03;4.90;;;31.10;61.80;;;;;;5027188;28;20048;-79
2023/06/25 10:55:38;;;;;;;7.50;4.60;;;31.10;62.10;;;;;;5014003;28;20048;-83
2023/06/25 10:58:04;;;;;;;6.43;4.28;;;31.00;61.90;;;;;;5024881;28;20041;-79
2023/06/25 11:00:30;;;;;;;8.40;4.90;;;31.20;62.50;;;;;;5030047;28;20621;-80
2023/06/25 11:02:56;;;;;;;7.00;4.80;;;31.40;62.90;;;;;;5029507;28;20044;-78
2023/06/25 11:07:56;;;;;;;6.00;4.90;;;31.70;63.00;;;;;;5084108;28;20047;-65
2023/06/25 11:10:26;;;;;;;6.65;4.70;;;31.90;62.80;;;;;;5080103;28;20032;-65
2023/06/25 11:12:51;;;;;;;7.53;5.00;;;32.00;61.50;;;;;;5077258;28;20461;-65
2023/06/25 11:15:18;;;;;;;6.40;4.95;;;31.90;61.10;;;;;;5065774;28;20162;-65
2023/06/25 11:17:53;;;;;;;6.80;5.25;;;31.90;61.00;;;;;;5066806;28;20533;-65
2023/06/25 11:20:25;;;;;;;8.60;5.63;;;31.90;60.80;;;;;;5073584;28;20043;-65
2023/06/25 11:22:51;;;;;;;8.20;5.07;;;31.80;60.00;;;;;;5079363;28;20063;-65
2023/06/25 11:25:20;;;;;;;6.70;5.72;;;31.70;60.80;;;;;;5086368;28;20264;-66
2023/06/25 11:27:47;;;;;;;8.05;5.53;;;31.70;61.30;;;;;;5079340;28;20063;-65
2023/06/25 11:30:12;;;;;;;7.20;5.22;;;31.80;60.80;;;;;;5085788;28;20039;-65
2023/06/25 11:32:42;;;;;;;6.63;5.32;;;31.80;61.00;;;;;;5066467;28;20398;-65
2023/06/25 11:35:10;;;;;;;6.75;5.88;;;31.80;61.60;;;;;;5079182;28;20642;-65
2023/06/25 11:37:49;;;;;;;6.32;5.72;;;31.90;61.20;;;;;;5084945;28;20048;-66
2023/06/25 11:40:28;;;;;;;7.65;5.57;;;31.90;60.30;;;;;;5079027;28;20054;-66
2023/06/25 11:42:54;;;;;;;8.52;5.78;;;31.90;60.40;;;;;;5080975;28;20032;-66
2023/06/25 11:45:21;;;;;;;7.63;5.57;;;31.90;60.70;;;;;;5082496;28;20036;-66
2023/06/25 11:47:50;;;;;;;6.57;5.45;;;32.00;61.00;;;;;;5079705;28;20039;-65
2023/06/25 11:50:18;;;;;;;8.65;5.95;;;32.10;62.00;;;;;;5079297;28;20418;-65
2023/06/25 11:52:44;;;;;;;7.40;6.03;;;32.30;61.30;;;;;;5083103;28;20047;-65
2023/06/25 11:55:11;;;;;;;8.57;6.00;;;32.30;60.60;;;;;;5083587;28;20055;-65
2023/06/25 11:57:37;;;;;;;8.52;6.15;;;32.30;60.60;;;;;;5061527;28;20093;-65
2023/06/25 12:00:03;;;;;;;7.63;5.88;;;32.30;60.80;;;;;;5084054;28;20233;-65
2023/06/25 12:02:29;;;;;;;8.38;6.10;;;32.30;60.80;;;;;;5075074;28;20036;-65
2023/06/25 12:04:55;;;;;;;8.55;5.70;;;32.30;60.60;;;;;;5078691;28;20124;-65
2023/06/25 12:07:20;;;;;;;7.43;5.40;;;32.40;60.50;;;;;;5083861;28;20036;-65
2023/06/25 12:09:46;;;;;;;7.03;5.78;;;32.40;61.30;;;;;;5063734;28;20047;-65
2023/06/25 12:12:11;;;;;;;7.63;5.70;;;32.30;59.70;;;;;;5064485;28;20036;-65
2023/06/25 12:14:37;;;;;;;7.38;5.30;;;32.30;59.20;;;;;;5080501;28;20034;-65
2023/06/25 12:17:03;;;;;;;5.88;5.13;;;32.30;59.20;;;;;;5070337;28;20512;-65
2023/06/25 12:19:29;;;;;;;10.60;5.60;;;32.40;59.20;;;;;;5079888;28;20047;-65
2023/06/25 12:21:56;;;;;;;6.97;5.40;;;32.50;59.90;;;;;;5069652;28;20036;-65
2023/06/25 12:24:23;;;;;;;5.85;5.25;;;32.60;60.20;;;;;;5080367;28;20064;-65
2023/06/25 12:26:49;;;;;;;6.00;5.32;;;32.70;60.40;;;;;;5081541;28;20077;-65
2023/06/25 12:29:14;;;;;;;7.05;5.28;;;32.70;59.60;;;;;;5083708;28;20535;-65
2023/06/25 12:31:40;;;;;;;9.85;5.55;;;32.80;59.80;;;;;;5079931;28;20067;-65
2023/06/25 12:34:06;;;;;;;6.07;5.15;;;32.90;60.00;;;;;;5057583;28;20048;-66
2023/06/25 12:36:32;;;;;;;5.75;4.97;;;32.90;60.00;;;;;;5081758;28;20143;-65
2023/06/25 12:39:00;;;;;;;6.95;5.15;;;33.00;59.10;;;;;;5082071;28;20027;-65